sensor_id;sensor_type;location;lat;lon;timestamp;temperature;humidity
33093;DHT22;19456;46.104;12.908;2024-01-25T00:00:42;3.60;99.90
33093;DHT22;19456;46.104;12.908;2024-01-25T00:03:08;3.70;99.90
33093;DHT22;19456;46.104;12.908;2024-01-25T00:05:34;3.80;99.90
33093;DHT22;19456;46.104;12.908;2024-01-25T00:07:59;3.90;99.90
33093;DHT22;19456;46.104;12.908;2024-01-25T00:10:25;3.80;99.90
33093;DHT22;19456;46.104;12.908;2024-01-25T00:12:50;3.80;99.90
33093;DHT22;19456;46.104;12.908;2024-01-25T00:15:16;3.90;99.90
33093;DHT22;19456;46.104;12.908;2024-01-25T00:17:42;3.90;99.90
33093;DHT22;19456;46.104;12.908;2024-01-25T00:20:09;3.90;99.90
33093;DHT22;19456;46.104;12.908;2024-01-25T00:22:34;3.90;99.90
33093;DHT22;19456;46.104;12.908;2024-01-25T00:25:00;3.80;99.90
33093;DHT22;19456;46.104;12.908;2024-01-25T00:27:25;3.80;99.90
33093;DHT22;19456;46.104;12.908;2024-01-25T00:29:51;3.80;99.90
33093;DHT22;19456;46.104;12.908;2024-01-25T00:32:17;3.80;99.90
33093;DHT22;19456;46.104;12.908;2024-01-25T00:34:42;3.80;99.90
33093;DHT22;19456;46.104;12.908;2024-01-25T00:37:08;3.80;99.90
33093;DHT22;19456;46.104;12.908;2024-01-25T00:39:34;3.80;99.90
33093;DHT22;19456;46.104;12.908;2024-01-25T00:42:03;3.70;99.90
33093;DHT22;19456;46.104;12.908;2024-01-25T00:44:29;3.80;99.90
33093;DHT22;19456;46.104;12.908;2024-01-25T00:46:56;3.90;99.90
33093;DHT22;19456;46.104;12.908;2024-01-25T00:49:21;4.00;99.90
33093;DHT22;19456;46.104;12.908;2024-01-25T00:51:47;4.00;99.90
33093;DHT22;19456;46.104;12.908;2024-01-25T00:54:16;3.90;99.90
33093;DHT22;19456;46.104;12.908;2024-01-25T00:56:42;3.80;99.90
33093;DHT22;19456;46.104;12.908;2024-01-25T00:59:08;3.70;99.90
33093;DHT22;19456;46.104;12.908;2024-01-25T01:01:33;3.80;99.90
33093;DHT22;19456;46.104;12.908;2024-01-25T01:03:59;3.90;99.90
33093;DHT22;19456;46.104;12.908;2024-01-25T01:06:25;3.90;99.90
33093;DHT22;19456;46.104;12.908;2024-01-25T01:08:51;3.80;99.90
33093;DHT22;19456;46.104;12.908;2024-01-25T01:11:17;3.70;99.90
33093;DHT22;19456;46.104;12.908;2024-01-25T01:13:45;3.70;99.90
33093;DHT22;19456;46.104;12.908;2024-01-25T01:16:12;3.70;99.90
33093;DHT22;19456;46.104;12.908;2024-01-25T01:18:38;3.80;99.90
33093;DHT22;19456;46.104;12.908;2024-01-25T01:21:04;3.80;99.90
33093;DHT22;19456;46.104;12.908;2024-01-25T01:23:29;3.80;99.90
33093;DHT22;19456;46.104;12.908;2024-01-25T01:25:55;3.60;99.90
33093;DHT22;19456;46.104;12.908;2024-01-25T01:28:21;3.60;99.90
33093;DHT22;19456;46.104;12.908;2024-01-25T01:30:46;3.50;99.90
33093;DHT22;19456;46.104;12.908;2024-01-25T01:33:12;3.50;99.90
33093;DHT22;19456;46.104;12.908;2024-01-25T01:35:38;3.60;99.90
33093;DHT22;19456;46.104;12.908;2024-01-25T01:38:04;3.60;99.90
33093;DHT22;19456;46.104;12.908;2024-01-25T01:40:30;3.60;99.90
33093;DHT22;19456;46.104;12.908;2024-01-25T01:42:59;3.60;99.90
33093;DHT22;19456;46.104;12.908;2024-01-25T01:45:24;3.70;99.90
33093;DHT22;19456;46.104;12.908;2024-01-25T01:47:50;3.80;99.90
33093;DHT22;19456;46.104;12.908;2024-01-25T01:50:17;3.80;99.90
33093;DHT22;19456;46.104;12.908;2024-01-25T01:52:42;3.90;99.90
33093;DHT22;19456;46.104;12.908;2024-01-25T01:55:08;3.90;99.90
33093;DHT22;19456;46.104;12.908;2024-01-25T01:57:34;4.00;99.90
33093;DHT22;19456;46.104;12.908;2024-01-25T02:00:00;4.00;99.90
33093;DHT22;19456;46.104;12.908;2024-01-25T02:02:29;4.00;99.90
33093;DHT22;19456;46.104;12.908;2024-01-25T02:04:55;4.00;99.90
33093;DHT22;19456;46.104;12.908;2024-01-25T02:07:20;4.10;99.90
33093;DHT22;19456;46.104;12.908;2024-01-25T02:09:46;4.10;99.90
33093;DHT22;19456;46.104;12.908;2024-01-25T02:12:14;4.10;99.90
33093;DHT22;19456;46.104;12.908;2024-01-25T02:14:41;4.00;99.90
33093;DHT22;19456;46.104;12.908;2024-01-25T02:17:06;4.10;99.90
33093;DHT22;19456;46.104;12.908;2024-01-25T02:19:33;4.00;99.90
33093;DHT22;19456;46.104;12.908;2024-01-25T02:21:59;3.90;99.90
33093;DHT22;19456;46.104;12.908;2024-01-25T02:24:24;3.90;99.90
33093;DHT22;19456;46.104;12.908;2024-01-25T02:26:50;3.90;99.90
33093;DHT22;19456;46.104;12.908;2024-01-25T02:29:15;3.90;99.90
33093;DHT22;19456;46.104;12.908;2024-01-25T02:31:41;3.80;99.90
33093;DHT22;19456;46.104;12.908;2024-01-25T02:34:07;3.70;99.90
33093;DHT22;19456;46.104;12.908;2024-01-25T02:36:33;3.70;99.90
33093;DHT22;19456;46.104;12.908;2024-01-25T02:38:58;3.70;99.90
33093;DHT22;19456;46.104;12.908;2024-01-25T02:41:24;3.70;99.90
33093;DHT22;19456;46.104;12.908;2024-01-25T02:43:49;3.80;99.90
33093;DHT22;19456;46.104;12.908;2024-01-25T02:46:15;3.80;99.90
33093;DHT22;19456;46.104;12.908;2024-01-25T02:48:40;3.80;99.90
33093;DHT22;19456;46.104;12.908;2024-01-25T02:51:06;3.90;99.90
33093;DHT22;19456;46.104;12.908;2024-01-25T02:53:31;3.80;99.90
33093;DHT22;19456;46.104;12.908;2024-01-25T02:55:57;3.80;99.90
33093;DHT22;19456;46.104;12.908;2024-01-25T02:58:22;3.90;99.90
33093;DHT22;19456;46.104;12.908;2024-01-25T03:00:48;4.10;99.90
33093;DHT22;19456;46.104;12.908;2024-01-25T03:03:13;4.10;99.90
33093;DHT22;19456;46.104;12.908;2024-01-25T03:05:39;4.10;99.90
33093;DHT22;19456;46.104;12.908;2024-01-25T03:08:06;4.10;99.90
33093;DHT22;19456;46.104;12.908;2024-01-25T03:10:32;4.20;99.90
33093;DHT22;19456;46.104;12.908;2024-01-25T03:12:57;4.30;99.90
33093;DHT22;19456;46.104;12.908;2024-01-25T03:15:23;4.30;99.90
33093;DHT22;19456;46.104;12.908;2024-01-25T03:17:48;4.30;99.90
33093;DHT22;19456;46.104;12.908;2024-01-25T03:20:14;4.30;99.90
33093;DHT22;19456;46.104;12.908;2024-01-25T03:22:39;4.40;99.90
33093;DHT22;19456;46.104;12.908;2024-01-25T03:25:05;4.30;99.90
33093;DHT22;19456;46.104;12.908;2024-01-25T03:27:31;4.20;99.90
33093;DHT22;19456;46.104;12.908;2024-01-25T03:29:56;4.20;99.90
33093;DHT22;19456;46.104;12.908;2024-01-25T03:32:22;4.10;99.90
33093;DHT22;19456;46.104;12.908;2024-01-25T03:34:47;4.10;99.90
33093;DHT22;19456;46.104;12.908;2024-01-25T03:37:13;4.10;99.90
33093;DHT22;19456;46.104;12.908;2024-01-25T03:39:39;4.20;99.90
33093;DHT22;19456;46.104;12.908;2024-01-25T03:42:05;4.30;99.90
33093;DHT22;19456;46.104;12.908;2024-01-25T03:44:30;4.30;99.90
33093;DHT22;19456;46.104;12.908;2024-01-25T03:46:56;4.30;99.90
33093;DHT22;19456;46.104;12.908;2024-01-25T03:49:22;4.20;99.90
33093;DHT22;19456;46.104;12.908;2024-01-25T03:51:48;4.10;99.90
33093;DHT22;19456;46.104;12.908;2024-01-25T03:54:14;4.10;99.90
33093;DHT22;19456;46.104;12.908;2024-01-25T03:56:40;4.20;99.90
33093;DHT22;19456;46.104;12.908;2024-01-25T03:59:05;4.30;99.90
33093;DHT22;19456;46.104;12.908;2024-01-25T04:01:41;4.20;99.90
33093;DHT22;19456;46.104;12.908;2024-01-25T04:04:06;4.40;99.90
33093;DHT22;19456;46.104;12.908;2024-01-25T04:06:33;4.60;99.90
33093;DHT22;19456;46.104;12.908;2024-01-25T04:08:59;4.70;99.90
33093;DHT22;19456;46.104;12.908;2024-01-25T04:11:24;4.80;99.90
33093;DHT22;19456;46.104;12.908;2024-01-25T04:13:50;5.00;99.90
33093;DHT22;19456;46.104;12.908;2024-01-25T04:16:15;5.10;99.90
33093;DHT22;19456;46.104;12.908;2024-01-25T04:18:41;5.20;99.90
33093;DHT22;19456;46.104;12.908;2024-01-25T04:21:06;5.10;99.90
33093;DHT22;19456;46.104;12.908;2024-01-25T04:23:32;5.10;99.90
33093;DHT22;19456;46.104;12.908;2024-01-25T04:25:57;5.00;99.90
33093;DHT22;19456;46.104;12.908;2024-01-25T04:28:23;4.90;99.90
33093;DHT22;19456;46.104;12.908;2024-01-25T04:30:48;4.90;99.90
33093;DHT22;19456;46.104;12.908;2024-01-25T04:33:14;5.10;99.90
33093;DHT22;19456;46.104;12.908;2024-01-25T04:35:40;5.20;99.90
33093;DHT22;19456;46.104;12.908;2024-01-25T04:38:05;5.10;99.90
33093;DHT22;19456;46.104;12.908;2024-01-25T04:40:31;5.00;99.90
33093;DHT22;19456;46.104;12.908;2024-01-25T04:42:56;5.00;99.90
33093;DHT22;19456;46.104;12.908;2024-01-25T04:45:22;5.10;99.90
33093;DHT22;19456;46.104;12.908;2024-01-25T04:47:47;5.20;99.90
33093;DHT22;19456;46.104;12.908;2024-01-25T04:50:13;5.30;99.90
33093;DHT22;19456;46.104;12.908;2024-01-25T04:52:38;5.30;99.90
33093;DHT22;19456;46.104;12.908;2024-01-25T04:55:04;5.30;99.90
33093;DHT22;19456;46.104;12.908;2024-01-25T04:57:30;5.30;99.90
33093;DHT22;19456;46.104;12.908;2024-01-25T04:59:55;5.10;99.90
33093;DHT22;19456;46.104;12.908;2024-01-25T05:02:21;5.10;99.90
33093;DHT22;19456;46.104;12.908;2024-01-25T05:04:46;5.20;99.90
33093;DHT22;19456;46.104;12.908;2024-01-25T05:07:12;5.30;99.90
33093;DHT22;19456;46.104;12.908;2024-01-25T05:09:37;5.20;99.90
33093;DHT22;19456;46.104;12.908;2024-01-25T05:12:04;5.20;99.90
33093;DHT22;19456;46.104;12.908;2024-01-25T05:14:30;5.20;99.90
33093;DHT22;19456;46.104;12.908;2024-01-25T05:16:55;5.30;99.90
33093;DHT22;19456;46.104;12.908;2024-01-25T05:19:21;5.30;99.90
33093;DHT22;19456;46.104;12.908;2024-01-25T05:21:46;5.40;99.90
33093;DHT22;19456;46.104;12.908;2024-01-25T05:24:12;5.40;99.90
33093;DHT22;19456;46.104;12.908;2024-01-25T05:26:37;5.50;99.90
33093;DHT22;19456;46.104;12.908;2024-01-25T05:29:03;5.40;99.90
33093;DHT22;19456;46.104;12.908;2024-01-25T05:31:29;5.50;99.90
33093;DHT22;19456;46.104;12.908;2024-01-25T05:33:55;5.40;99.90
33093;DHT22;19456;46.104;12.908;2024-01-25T05:36:20;5.40;99.90
33093;DHT22;19456;46.104;12.908;2024-01-25T05:38:46;5.30;99.90
33093;DHT22;19456;46.104;12.908;2024-01-25T05:41:11;5.40;99.90
33093;DHT22;19456;46.104;12.908;2024-01-25T05:43:38;5.40;99.90
33093;DHT22;19456;46.104;12.908;2024-01-25T05:46:03;5.40;99.90
33093;DHT22;19456;46.104;12.908;2024-01-25T05:48:29;5.50;99.90
33093;DHT22;19456;46.104;12.908;2024-01-25T05:50:55;5.60;99.90
33093;DHT22;19456;46.104;12.908;2024-01-25T05:53:20;5.60;99.90
33093;DHT22;19456;46.104;12.908;2024-01-25T05:55:48;5.60;99.90
33093;DHT22;19456;46.104;12.908;2024-01-25T05:58:13;5.50;99.90
33093;DHT22;19456;46.104;12.908;2024-01-25T06:00:39;5.50;99.90
33093;DHT22;19456;46.104;12.908;2024-01-25T06:03:04;5.50;99.90
33093;DHT22;19456;46.104;12.908;2024-01-25T06:05:30;5.60;99.90
33093;DHT22;19456;46.104;12.908;2024-01-25T06:07:56;5.60;99.90
33093;DHT22;19456;46.104;12.908;2024-01-25T06:10:21;5.70;99.90
33093;DHT22;19456;46.104;12.908;2024-01-25T06:12:47;5.80;99.90
33093;DHT22;19456;46.104;12.908;2024-01-25T06:15:12;5.90;99.90
33093;DHT22;19456;46.104;12.908;2024-01-25T06:17:38;5.90;99.90
33093;DHT22;19456;46.104;12.908;2024-01-25T06:20:03;5.80;99.90
33093;DHT22;19456;46.104;12.908;2024-01-25T06:22:30;5.80;99.90
33093;DHT22;19456;46.104;12.908;2024-01-25T06:24:58;5.80;99.90
33093;DHT22;19456;46.104;12.908;2024-01-25T06:27:30;5.80;99.90
33093;DHT22;19456;46.104;12.908;2024-01-25T06:30:10;5.90;99.90
33093;DHT22;19456;46.104;12.908;2024-01-25T06:32:36;5.90;99.90
33093;DHT22;19456;46.104;12.908;2024-01-25T06:35:03;5.90;99.90
33093;DHT22;19456;46.104;12.908;2024-01-25T06:37:29;6.00;99.90
33093;DHT22;19456;46.104;12.908;2024-01-25T06:39:56;6.10;99.90
33093;DHT22;19456;46.104;12.908;2024-01-25T06:42:21;6.20;99.90
33093;DHT22;19456;46.104;12.908;2024-01-25T06:44:47;6.20;99.90
33093;DHT22;19456;46.104;12.908;2024-01-25T06:47:12;6.20;99.90
33093;DHT22;19456;46.104;12.908;2024-01-25T06:55:28;6.10;99.90
33093;DHT22;19456;46.104;12.908;2024-01-25T06:57:56;6.00;99.90
33093;DHT22;19456;46.104;12.908;2024-01-25T07:00:23;5.90;99.90
33093;DHT22;19456;46.104;12.908;2024-01-25T07:02:49;6.00;99.90
33093;DHT22;19456;46.104;12.908;2024-01-25T07:05:19;5.90;99.90
33093;DHT22;19456;46.104;12.908;2024-01-25T07:08:02;5.90;99.90
33093;DHT22;19456;46.104;12.908;2024-01-25T07:11:10;6.00;99.90
33093;DHT22;19456;46.104;12.908;2024-01-25T07:14:13;6.10;99.90
33093;DHT22;19456;46.104;12.908;2024-01-25T07:16:46;6.00;99.90
33093;DHT22;19456;46.104;12.908;2024-01-25T07:19:12;5.90;99.90
33093;DHT22;19456;46.104;12.908;2024-01-25T07:21:38;5.80;99.90
33093;DHT22;19456;46.104;12.908;2024-01-25T07:24:06;5.80;99.90
33093;DHT22;19456;46.104;12.908;2024-01-25T07:26:32;5.80;99.90
33093;DHT22;19456;46.104;12.908;2024-01-25T07:29:01;5.90;99.90
33093;DHT22;19456;46.104;12.908;2024-01-25T07:31:27;5.90;99.90
33093;DHT22;19456;46.104;12.908;2024-01-25T07:33:53;5.90;99.90
33093;DHT22;19456;46.104;12.908;2024-01-25T07:36:19;5.90;99.90
33093;DHT22;19456;46.104;12.908;2024-01-25T07:38:45;6.10;99.90
33093;DHT22;19456;46.104;12.908;2024-01-25T07:41:12;6.10;99.90
33093;DHT22;19456;46.104;12.908;2024-01-25T07:43:38;6.20;99.90
33093;DHT22;19456;46.104;12.908;2024-01-25T07:46:04;6.30;99.90
33093;DHT22;19456;46.104;12.908;2024-01-25T07:48:32;6.20;99.90
33093;DHT22;19456;46.104;12.908;2024-01-25T07:50:58;6.10;99.90
33093;DHT22;19456;46.104;12.908;2024-01-25T07:53:24;6.10;99.90
33093;DHT22;19456;46.104;12.908;2024-01-25T07:55:50;6.20;99.90
33093;DHT22;19456;46.104;12.908;2024-01-25T07:58:15;6.20;99.90
33093;DHT22;19456;46.104;12.908;2024-01-25T08:00:41;6.20;99.90
33093;DHT22;19456;46.104;12.908;2024-01-25T08:03:08;6.20;99.90
33093;DHT22;19456;46.104;12.908;2024-01-25T08:05:36;6.20;99.90
33093;DHT22;19456;46.104;12.908;2024-01-25T08:08:08;6.20;99.90
33093;DHT22;19456;46.104;12.908;2024-01-25T08:10:37;6.20;99.90
33093;DHT22;19456;46.104;12.908;2024-01-25T08:13:02;6.30;99.90
33093;DHT22;19456;46.104;12.908;2024-01-25T08:15:28;6.20;99.90
33093;DHT22;19456;46.104;12.908;2024-01-25T08:17:54;6.30;99.90
33093;DHT22;19456;46.104;12.908;2024-01-25T08:20:20;6.40;99.90
33093;DHT22;19456;46.104;12.908;2024-01-25T08:22:45;6.50;99.90
33093;DHT22;19456;46.104;12.908;2024-01-25T08:25:11;6.60;99.90
33093;DHT22;19456;46.104;12.908;2024-01-25T08:27:39;6.70;99.90
33093;DHT22;19456;46.104;12.908;2024-01-25T08:30:05;6.80;99.90
33093;DHT22;19456;46.104;12.908;2024-01-25T08:32:31;6.80;99.90
33093;DHT22;19456;46.104;12.908;2024-01-25T08:34:56;6.80;99.90
33093;DHT22;19456;46.104;12.908;2024-01-25T08:37:22;6.90;99.90
33093;DHT22;19456;46.104;12.908;2024-01-25T08:39:47;7.10;99.90
33093;DHT22;19456;46.104;12.908;2024-01-25T08:42:15;7.20;99.90
33093;DHT22;19456;46.104;12.908;2024-01-25T08:44:42;7.20;99.90
33093;DHT22;19456;46.104;12.908;2024-01-25T08:47:14;7.30;99.90
33093;DHT22;19456;46.104;12.908;2024-01-25T08:49:40;7.40;99.90
33093;DHT22;19456;46.104;12.908;2024-01-25T08:52:08;7.50;99.90
33093;DHT22;19456;46.104;12.908;2024-01-25T08:54:33;7.60;99.90
33093;DHT22;19456;46.104;12.908;2024-01-25T08:56:59;7.50;99.90
33093;DHT22;19456;46.104;12.908;2024-01-25T08:59:30;7.50;99.90
33093;DHT22;19456;46.104;12.908;2024-01-25T09:02:05;7.50;99.90
33093;DHT22;19456;46.104;12.908;2024-01-25T09:04:32;7.60;99.90
33093;DHT22;19456;46.104;12.908;2024-01-25T09:07:11;7.80;99.90
33093;DHT22;19456;46.104;12.908;2024-01-25T09:09:40;8.00;99.90
33093;DHT22;19456;46.104;12.908;2024-01-25T09:12:06;8.10;99.90
33093;DHT22;19456;46.104;12.908;2024-01-25T09:14:41;8.30;99.90
33093;DHT22;19456;46.104;12.908;2024-01-25T09:17:09;8.50;99.90
33093;DHT22;19456;46.104;12.908;2024-01-25T09:19:35;8.60;99.90
33093;DHT22;19456;46.104;12.908;2024-01-25T09:22:02;8.70;99.90
33093;DHT22;19456;46.104;12.908;2024-01-25T09:24:30;8.80;99.90
33093;DHT22;19456;46.104;12.908;2024-01-25T09:27:02;8.90;99.90
33093;DHT22;19456;46.104;12.908;2024-01-25T09:29:32;9.00;99.90
33093;DHT22;19456;46.104;12.908;2024-01-25T09:32:05;9.10;99.90
33093;DHT22;19456;46.104;12.908;2024-01-25T09:34:36;9.30;99.90
33093;DHT22;19456;46.104;12.908;2024-01-25T09:37:05;9.40;99.90
33093;DHT22;19456;46.104;12.908;2024-01-25T09:39:36;9.50;99.90
33093;DHT22;19456;46.104;12.908;2024-01-25T09:42:08;9.60;99.90
33093;DHT22;19456;46.104;12.908;2024-01-25T09:44:38;9.70;99.90
33093;DHT22;19456;46.104;12.908;2024-01-25T09:47:07;9.90;99.90
33093;DHT22;19456;46.104;12.908;2024-01-25T09:49:34;10.00;99.90
33093;DHT22;19456;46.104;12.908;2024-01-25T09:52:07;10.10;99.90
33093;DHT22;19456;46.104;12.908;2024-01-25T09:54:56;10.20;99.90
33093;DHT22;19456;46.104;12.908;2024-01-25T09:57:50;10.30;99.90
33093;DHT22;19456;46.104;12.908;2024-01-25T10:00:38;10.40;99.90
33093;DHT22;19456;46.104;12.908;2024-01-25T10:18:11;11.20;99.90
33093;DHT22;19456;46.104;12.908;2024-01-25T10:20:42;11.40;99.90
33093;DHT22;19456;46.104;12.908;2024-01-25T10:44:12;11.70;99.90
33093;DHT22;19456;46.104;12.908;2024-01-25T10:46:40;11.60;99.90
33093;DHT22;19456;46.104;12.908;2024-01-25T10:49:07;11.70;99.90
33093;DHT22;19456;46.104;12.908;2024-01-25T10:51:33;11.70;99.90
33093;DHT22;19456;46.104;12.908;2024-01-25T10:54:00;11.70;99.90
33093;DHT22;19456;46.104;12.908;2024-01-25T10:56:27;11.80;99.90
33093;DHT22;19456;46.104;12.908;2024-01-25T10:58:53;11.90;99.90
33093;DHT22;19456;46.104;12.908;2024-01-25T11:01:19;12.00;99.90
33093;DHT22;19456;46.104;12.908;2024-01-25T11:03:45;12.10;99.90
33093;DHT22;19456;46.104;12.908;2024-01-25T11:06:12;12.20;99.90
33093;DHT22;19456;46.104;12.908;2024-01-25T11:08:38;12.30;99.90
33093;DHT22;19456;46.104;12.908;2024-01-25T11:11:08;12.30;99.90
33093;DHT22;19456;46.104;12.908;2024-01-25T11:13:34;12.60;99.90
33093;DHT22;19456;46.104;12.908;2024-01-25T11:16:10;12.80;99.90
33093;DHT22;19456;46.104;12.908;2024-01-25T11:18:46;13.20;99.90
33093;DHT22;19456;46.104;12.908;2024-01-25T11:21:11;13.40;99.90
33093;DHT22;19456;46.104;12.908;2024-01-25T11:23:38;13.80;99.90
33093;DHT22;19456;46.104;12.908;2024-01-25T11:26:08;14.30;99.90
33093;DHT22;19456;46.104;12.908;2024-01-25T11:28:33;14.50;99.90
33093;DHT22;19456;46.104;12.908;2024-01-25T11:31:00;14.50;99.90
33093;DHT22;19456;46.104;12.908;2024-01-25T11:33:28;14.70;99.90
33093;DHT22;19456;46.104;12.908;2024-01-25T11:35:54;15.00;99.90
33093;DHT22;19456;46.104;12.908;2024-01-25T11:38:21;15.10;99.90
33093;DHT22;19456;46.104;12.908;2024-01-25T11:47:24;16.40;99.90
33093;DHT22;19456;46.104;12.908;2024-01-25T11:49:53;16.50;99.90
33093;DHT22;19456;46.104;12.908;2024-01-25T11:52:28;16.70;99.90
33093;DHT22;19456;46.104;12.908;2024-01-25T11:55:18;16.60;99.90
33093;DHT22;19456;46.104;12.908;2024-01-25T11:57:48;16.70;99.90
33093;DHT22;19456;46.104;12.908;2024-01-25T12:00:16;16.60;99.90
33093;DHT22;19456;46.104;12.908;2024-01-25T12:02:48;16.70;99.90
33093;DHT22;19456;46.104;12.908;2024-01-25T12:05:14;17.10;99.90
33093;DHT22;19456;46.104;12.908;2024-01-25T12:07:46;17.00;99.90
33093;DHT22;19456;46.104;12.908;2024-01-25T12:11:06;16.80;99.90
33093;DHT22;19456;46.104;12.908;2024-01-25T12:13:35;16.60;99.90
33093;DHT22;19456;46.104;12.908;2024-01-25T12:16:02;17.10;99.90
33093;DHT22;19456;46.104;12.908;2024-01-25T12:18:29;17.80;99.90
33093;DHT22;19456;46.104;12.908;2024-01-25T12:20:59;18.30;99.90
33093;DHT22;19456;46.104;12.908;2024-01-25T12:25:58;18.80;99.90
33093;DHT22;19456;46.104;12.908;2024-01-25T12:28:29;18.60;99.90
33093;DHT22;19456;46.104;12.908;2024-01-25T12:30:55;19.10;99.90
33093;DHT22;19456;46.104;12.908;2024-01-25T12:33:20;18.90;99.90
33093;DHT22;19456;46.104;12.908;2024-01-25T12:35:46;19.10;99.90
33093;DHT22;19456;46.104;12.908;2024-01-25T12:38:12;19.70;99.90
33093;DHT22;19456;46.104;12.908;2024-01-25T12:40:37;19.90;99.90
33093;DHT22;19456;46.104;12.908;2024-01-25T12:43:03;20.80;99.90
33093;DHT22;19456;46.104;12.908;2024-01-25T12:45:29;21.20;99.90
33093;DHT22;19456;46.104;12.908;2024-01-25T12:47:55;21.00;99.90
33093;DHT22;19456;46.104;12.908;2024-01-25T12:50:21;21.60;98.50
33093;DHT22;19456;46.104;12.908;2024-01-25T12:52:47;21.40;97.30
33093;DHT22;19456;46.104;12.908;2024-01-25T12:55:15;21.10;97.00
33093;DHT22;19456;46.104;12.908;2024-01-25T12:57:40;21.80;96.80
33093;DHT22;19456;46.104;12.908;2024-01-25T13:00:06;20.70;96.70
33093;DHT22;19456;46.104;12.908;2024-01-25T13:02:32;20.20;97.20
33093;DHT22;19456;46.104;12.908;2024-01-25T13:04:57;20.40;97.40
33093;DHT22;19456;46.104;12.908;2024-01-25T13:07:23;21.10;96.70
33093;DHT22;19456;46.104;12.908;2024-01-25T13:09:48;21.80;94.60
33093;DHT22;19456;46.104;12.908;2024-01-25T13:12:14;21.90;94.60
33093;DHT22;19456;46.104;12.908;2024-01-25T13:14:44;21.90;93.70
33093;DHT22;19456;46.104;12.908;2024-01-25T13:17:12;22.40;92.80
33093;DHT22;19456;46.104;12.908;2024-01-25T13:19:39;22.40;91.70
33093;DHT22;19456;46.104;12.908;2024-01-25T13:22:10;22.90;90.90
33093;DHT22;19456;46.104;12.908;2024-01-25T13:24:36;22.60;91.00
33093;DHT22;19456;46.104;12.908;2024-01-25T13:27:08;22.90;90.00
33093;DHT22;19456;46.104;12.908;2024-01-25T13:30:02;22.00;90.80
33093;DHT22;19456;46.104;12.908;2024-01-25T13:35:27;23.30;86.80
33093;DHT22;19456;46.104;12.908;2024-01-25T13:40:47;22.20;86.60
33093;DHT22;19456;46.104;12.908;2024-01-25T13:43:34;22.40;87.60
33093;DHT22;19456;46.104;12.908;2024-01-25T13:46:02;22.80;86.40
33093;DHT22;19456;46.104;12.908;2024-01-25T13:48:27;23.10;84.60
33093;DHT22;19456;46.104;12.908;2024-01-25T13:50:53;23.30;84.20
33093;DHT22;19456;46.104;12.908;2024-01-25T13:53:18;23.40;81.60
33093;DHT22;19456;46.104;12.908;2024-01-25T13:55:47;23.90;81.20
33093;DHT22;19456;46.104;12.908;2024-01-25T13:58:20;23.70;80.10
33093;DHT22;19456;46.104;12.908;2024-01-25T14:00:47;23.30;80.70
33093;DHT22;19456;46.104;12.908;2024-01-25T14:03:37;23.50;80.20
33093;DHT22;19456;46.104;12.908;2024-01-25T14:09:07;23.90;78.00
33093;DHT22;19456;46.104;12.908;2024-01-25T14:14:31;23.90;78.20
33093;DHT22;19456;46.104;12.908;2024-01-25T14:16:59;24.20;77.00
33093;DHT22;19456;46.104;12.908;2024-01-25T14:22:29;24.20;75.90
33093;DHT22;19456;46.104;12.908;2024-01-25T14:24:55;23.80;76.40
33093;DHT22;19456;46.104;12.908;2024-01-25T14:27:21;23.50;77.60
33093;DHT22;19456;46.104;12.908;2024-01-25T14:29:46;23.90;74.70
33093;DHT22;19456;46.104;12.908;2024-01-25T14:32:12;24.00;74.40
33093;DHT22;19456;46.104;12.908;2024-01-25T14:34:37;23.10;76.60
33093;DHT22;19456;46.104;12.908;2024-01-25T14:37:03;22.80;78.60
33093;DHT22;19456;46.104;12.908;2024-01-25T14:39:28;21.90;80.00
33093;DHT22;19456;46.104;12.908;2024-01-25T14:41:54;20.90;82.20
33093;DHT22;19456;46.104;12.908;2024-01-25T14:44:20;19.40;87.10
33093;DHT22;19456;46.104;12.908;2024-01-25T14:46:46;18.00;90.90
33093;DHT22;19456;46.104;12.908;2024-01-25T14:49:12;17.10;92.60
33093;DHT22;19456;46.104;12.908;2024-01-25T14:51:37;16.60;93.90
33093;DHT22;19456;46.104;12.908;2024-01-25T14:54:03;15.90;95.40
33093;DHT22;19456;46.104;12.908;2024-01-25T14:56:29;15.50;96.60
33093;DHT22;19456;46.104;12.908;2024-01-25T14:58:54;15.10;97.70
33093;DHT22;19456;46.104;12.908;2024-01-25T15:01:21;14.70;99.00
33093;DHT22;19456;46.104;12.908;2024-01-25T15:03:53;14.40;99.90
33093;DHT22;19456;46.104;12.908;2024-01-25T15:06:18;14.20;99.90
33093;DHT22;19456;46.104;12.908;2024-01-25T15:08:44;14.10;99.90
33093;DHT22;19456;46.104;12.908;2024-01-25T15:11:12;13.90;99.90
33093;DHT22;19456;46.104;12.908;2024-01-25T15:13:40;13.70;99.90
33093;DHT22;19456;46.104;12.908;2024-01-25T15:16:09;13.50;99.90
33093;DHT22;19456;46.104;12.908;2024-01-25T15:18:34;13.40;99.90
33093;DHT22;19456;46.104;12.908;2024-01-25T15:21:00;13.20;99.90
33093;DHT22;19456;46.104;12.908;2024-01-25T15:23:39;13.00;99.90
33093;DHT22;19456;46.104;12.908;2024-01-25T15:26:13;12.70;99.90
33093;DHT22;19456;46.104;12.908;2024-01-25T15:28:42;12.50;99.90
33093;DHT22;19456;46.104;12.908;2024-01-25T15:31:10;12.30;99.90
33093;DHT22;19456;46.104;12.908;2024-01-25T15:33:36;12.30;99.90
33093;DHT22;19456;46.104;12.908;2024-01-25T15:36:01;12.20;99.90
33093;DHT22;19456;46.104;12.908;2024-01-25T15:38:30;12.10;99.90
33093;DHT22;19456;46.104;12.908;2024-01-25T15:41:07;12.10;99.90
33093;DHT22;19456;46.104;12.908;2024-01-25T15:43:38;12.00;99.90
33093;DHT22;19456;46.104;12.908;2024-01-25T15:46:06;12.00;99.90
33093;DHT22;19456;46.104;12.908;2024-01-25T15:48:39;11.80;99.90
33093;DHT22;19456;46.104;12.908;2024-01-25T15:51:11;11.50;99.90
33093;DHT22;19456;46.104;12.908;2024-01-25T15:53:37;11.50;99.90
33093;DHT22;19456;46.104;12.908;2024-01-25T15:56:05;11.40;99.90
33093;DHT22;19456;46.104;12.908;2024-01-25T15:58:30;11.30;99.90
33093;DHT22;19456;46.104;12.908;2024-01-25T16:00:56;11.20;99.90
33093;DHT22;19456;46.104;12.908;2024-01-25T16:03:24;11.10;99.90
33093;DHT22;19456;46.104;12.908;2024-01-25T16:05:52;10.90;99.90
33093;DHT22;19456;46.104;12.908;2024-01-25T16:08:20;10.90;99.90
33093;DHT22;19456;46.104;12.908;2024-01-25T16:10:45;10.80;99.90
33093;DHT22;19456;46.104;12.908;2024-01-25T16:13:11;10.70;99.90
33093;DHT22;19456;46.104;12.908;2024-01-25T16:15:37;10.50;99.90
33093;DHT22;19456;46.104;12.908;2024-01-25T16:18:02;10.40;99.90
33093;DHT22;19456;46.104;12.908;2024-01-25T16:20:30;10.40;99.90
33093;DHT22;19456;46.104;12.908;2024-01-25T16:22:55;10.40;99.90
33093;DHT22;19456;46.104;12.908;2024-01-25T16:25:21;10.50;99.90
33093;DHT22;19456;46.104;12.908;2024-01-25T16:27:47;10.50;99.90
33093;DHT22;19456;46.104;12.908;2024-01-25T16:30:14;10.60;99.90
33093;DHT22;19456;46.104;12.908;2024-01-25T16:32:39;10.60;99.90